This is the latest recevied weather packets stored in our database for station/object KF4ERV-4. If no packets are shown the sender has not sent any weather packets the latest 10 day(s).
| Time | Temp. | Humidity | Pressure | Rain* | Wind** | Luminosity | Snow |
|---|---|---|---|---|---|---|---|
| 1777437577 | 16.11° C | 74% | 1014 hPa | 0 mm | - | - | - |
| 1777437425 | 16.11° C | 73% | 1014.4 hPa | 0 mm | - | - | - |
| 1777437279 | 16.11° C | 73% | 1014.4 hPa | 0 mm | - | - | - |
| 1777437133 | 16.11° C | 70% | 1014.9 hPa | 0 mm | - | - | - |
| 1777436983 | 16.11° C | 70% | 1014.9 hPa | 0 mm | - | - | - |
| 1777436843 | 16.11° C | 68% | 1015 hPa | 0.25 mm | - | - | - |
| 1777436675 | 16.11° C | 68% | 1015 hPa | 0.25 mm | - | - | - |
| 1777436553 | 16.11° C | 65% | 1015 hPa | 0.25 mm | - | - | - |
| 1777436377 | 16.11° C | 65% | 1015 hPa | 0.25 mm | - | - | - |
| 1777436263 | 16.67° C | 64% | 1015 hPa | 0.25 mm | - | - | - |
| 1777436080 | 16.67° C | 64% | 1015 hPa | 0.25 mm | - | - | - |
| 1777435973 | 16.67° C | 61% | 1014.6 hPa | 1.02 mm | - | - | - |
| 1777435773 | 16.67° C | 61% | 1014.6 hPa | 1.02 mm | - | - | - |
| 1777435683 | 16.67° C | 59% | 1014.8 hPa | 2.29 mm | - | - | - |
| 1777435476 | 16.67° C | 59% | 1014.8 hPa | 2.29 mm | - | - | - |
| 1777435396 | 16.67° C | 57% | 1014 hPa | 3.81 mm | - | - | - |
| 1777435178 | 16.67° C | 57% | 1014 hPa | 3.81 mm | - | - | - |
| 1777435104 | 16.67° C | 55% | 1014 hPa | 4.57 mm | - | - | - |
| 1777435004 | 16.67° C | 55% | 1014 hPa | 4.57 mm | - | - | - |
| 1777434993 | 16.67° C | 55% | 1014 hPa | 4.83 mm | - | - | - |
| 1777434882 | 16.67° C | 55% | 1014 hPa | 4.57 mm | - | - | - |
| 1777434814 | 16.67° C | 55% | 1014 hPa | 4.83 mm | - | - | - |
| 1777434574 | 16.67° C | 55% | 1014 hPa | 4.83 mm | - | - | - |
| 1777434524 | 16.67° C | 52% | 1013.9 hPa | 4.83 mm | - | - | - |
| 1777434276 | 16.67° C | 52% | 1013.9 hPa | 4.83 mm | - | - | - |
* Rain latest hour (hover to see other rain measurements)
** Current wind speed in m/s (hover to see current wind gust speed)